createdAt,value
2018-01-20T00:00:39.083Z,4.47
2018-01-20T00:03:06.556Z,5.13
2018-01-20T00:05:35.690Z,5.07
2018-01-20T00:08:03.138Z,6.00
2018-01-20T00:10:42.549Z,6.20
2018-01-20T00:13:10.966Z,5.07
2018-01-20T00:15:39.274Z,4.90
2018-01-20T00:18:06.725Z,6.50
2018-01-20T00:20:35.062Z,5.30
2018-01-20T00:23:03.565Z,5.43
2018-01-20T00:25:31.073Z,5.73
2018-01-20T00:27:59.292Z,5.67
2018-01-20T00:30:27.365Z,5.20
2018-01-20T00:32:54.846Z,6.10
2018-01-20T00:35:23.988Z,5.90
2018-01-20T00:37:51.554Z,6.63
2018-01-20T00:40:19.011Z,9.47
2018-01-20T00:42:46.498Z,9.93
2018-01-20T00:45:13.986Z,10.27
2018-01-20T00:47:41.465Z,11.07
2018-01-20T00:50:09.630Z,11.60
2018-01-20T00:52:37.875Z,11.20
2018-01-20T00:55:05.341Z,12.63
2018-01-20T00:57:33.586Z,12.10
2018-01-20T01:00:01.631Z,13.53
2018-01-20T01:02:29.837Z,14.00
2018-01-20T01:04:57.316Z,13.87
2018-01-20T01:07:25.705Z,15.27
2018-01-20T01:09:53.937Z,13.97
2018-01-20T01:12:21.426Z,15.37
2018-01-20T01:14:48.886Z,15.90
2018-01-20T01:17:17.957Z,16.00
2018-01-20T01:19:46.809Z,14.67
2018-01-20T01:22:14.982Z,16.93
2018-01-20T01:24:42.431Z,15.40
2018-01-20T01:27:09.910Z,16.37
2018-01-20T01:29:37.448Z,15.17
2018-01-20T01:32:04.950Z,15.30
2018-01-20T01:34:32.409Z,17.70
2018-01-20T01:36:59.866Z,17.70
2018-01-20T01:39:27.342Z,15.57
2018-01-20T01:41:55.573Z,16.10
2018-01-20T01:44:23.061Z,14.40
2018-01-20T01:46:50.521Z,14.57
2018-01-20T01:49:18.770Z,12.90
2018-01-20T01:51:46.241Z,13.40
2018-01-20T01:54:13.710Z,12.00
2018-01-20T01:56:41.933Z,12.40
2018-01-20T01:59:09.414Z,11.00
2018-01-20T02:01:36.874Z,10.57
2018-01-20T02:04:04.369Z,10.87
2018-01-20T02:06:32.601Z,9.00
2018-01-20T02:09:00.074Z,10.20
2018-01-20T02:11:27.549Z,10.70
2018-01-20T02:13:55.773Z,11.10
2018-01-20T02:16:23.259Z,11.10
2018-01-20T02:18:50.729Z,9.20
2018-01-20T02:21:18.274Z,10.50
2018-01-20T02:23:45.737Z,10.20
2018-01-20T02:26:13.218Z,10.30
2018-01-20T02:28:41.445Z,9.57
2018-01-20T02:31:08.918Z,9.00
2018-01-20T02:33:36.398Z,8.40
2018-01-20T02:36:04.633Z,7.97
2018-01-20T02:38:32.090Z,7.80
2018-01-20T02:40:59.570Z,9.50
2018-01-20T02:43:27.078Z,6.87
2018-01-20T02:45:54.546Z,7.80
2018-01-20T02:48:22.021Z,7.80
2018-01-20T02:50:49.482Z,8.30
2018-01-20T02:53:16.961Z,8.47
2018-01-20T02:55:45.189Z,8.70
2018-01-20T02:58:12.662Z,7.80
2018-01-20T03:00:40.141Z,7.67
2018-01-20T03:03:07.593Z,7.70
2018-01-20T03:05:35.082Z,8.07
2018-01-20T03:08:02.534Z,7.77
2018-01-20T03:10:30.770Z,8.47
2018-01-20T03:12:58.225Z,9.17
2018-01-20T03:15:25.748Z,9.57
2018-01-20T03:17:53.189Z,7.97
2018-01-20T03:20:20.702Z,7.63
2018-01-20T03:22:48.177Z,8.97
2018-01-20T03:25:16.410Z,9.17
2018-01-20T03:27:43.882Z,8.50
2018-01-20T03:30:12.866Z,8.77
2018-01-20T03:32:40.342Z,8.20
2018-01-20T03:35:07.801Z,8.10
2018-01-20T03:37:36.029Z,9.23
2018-01-20T03:40:03.499Z,8.07
2018-01-20T03:42:30.961Z,8.87
2018-01-20T03:44:58.433Z,8.40
2018-01-20T03:47:25.906Z,8.80
2018-01-20T03:49:53.385Z,9.30
2018-01-20T03:52:21.610Z,7.53
2018-01-20T03:54:51.545Z,8.20
2018-01-20T03:57:19.021Z,8.77
2018-01-20T03:59:47.333Z,8.17
2018-01-20T04:02:14.798Z,7.93
2018-01-20T04:04:42.254Z,7.90
2018-01-20T04:07:09.737Z,8.97
2018-01-20T04:09:38.711Z,8.50
2018-01-20T04:12:06.185Z,8.40
2018-01-20T04:14:33.661Z,8.13
2018-01-20T04:17:01.122Z,8.30
2018-01-20T04:19:28.590Z,8.63
2018-01-20T04:21:56.814Z,8.20
2018-01-20T04:24:24.285Z,7.50
2018-01-20T04:26:51.753Z,8.43
2018-01-20T04:29:19.229Z,8.13
2018-01-20T04:31:47.540Z,8.90
2018-01-20T04:34:14.996Z,8.10
2018-01-20T04:36:42.462Z,9.20
2018-01-20T04:39:09.933Z,9.43
2018-01-20T04:41:37.406Z,8.53
2018-01-20T04:44:04.889Z,8.90
2018-01-20T04:46:33.150Z,7.90
2018-01-20T04:49:02.882Z,7.77
2018-01-20T04:51:31.114Z,8.03
2018-01-20T04:53:58.599Z,7.87
2018-01-20T04:56:26.845Z,7.43
2018-01-20T04:58:54.342Z,8.17
2018-01-20T05:01:21.824Z,7.43
2018-01-20T05:03:49.293Z,7.03
2018-01-20T05:06:16.769Z,7.07
2018-01-20T05:08:44.251Z,7.47
2018-01-20T05:11:11.716Z,7.17
2018-01-20T05:13:39.189Z,6.70
2018-01-20T05:16:06.665Z,5.90
2018-01-20T05:18:34.165Z,5.57
2018-01-20T05:21:01.637Z,5.43
2018-01-20T05:23:31.306Z,5.40
2018-01-20T05:25:58.761Z,5.00
2018-01-20T05:28:26.242Z,4.50
2018-01-20T05:30:54.520Z,5.13
2018-01-20T05:33:21.965Z,4.63
2018-01-20T05:35:49.433Z,4.60
2018-01-20T05:38:16.909Z,5.43
2018-01-20T05:40:45.157Z,4.87
2018-01-20T05:43:12.613Z,4.70
2018-01-20T05:45:40.086Z,4.40
2018-01-20T05:48:09.061Z,4.60
2018-01-20T05:50:36.509Z,5.27
2018-01-20T05:53:03.982Z,5.07
2018-01-20T05:55:31.466Z,5.23
2018-01-20T05:57:59.707Z,5.30
2018-01-20T06:00:27.186Z,5.87
2018-01-20T06:02:55.413Z,5.60
2018-01-20T06:05:22.883Z,6.93
2018-01-20T06:07:50.356Z,5.50
2018-01-20T06:10:17.831Z,5.40
2018-01-20T06:12:46.065Z,6.43
2018-01-20T06:15:13.545Z,6.30
2018-01-20T06:17:41.001Z,6.80
2018-01-20T06:20:08.473Z,6.47
2018-01-20T06:22:36.726Z,6.00
2018-01-20T06:25:04.190Z,6.70
2018-01-20T06:27:31.649Z,7.03
2018-01-20T06:29:59.117Z,7.53
2018-01-20T06:32:27.350Z,6.20
2018-01-20T06:34:54.819Z,6.43
2018-01-20T06:37:22.289Z,6.80
2018-01-20T06:39:49.745Z,6.00
2018-01-20T06:42:17.214Z,6.60
2018-01-20T06:44:45.465Z,6.63
2018-01-20T06:47:12.934Z,5.93
2018-01-20T06:49:40.410Z,6.53
2018-01-20T06:52:08.635Z,6.83
2018-01-20T06:54:36.089Z,6.13
2018-01-20T06:57:03.560Z,6.13
2018-01-20T06:59:31.091Z,5.80
2018-01-20T07:01:58.545Z,6.20
2018-01-20T07:04:26.006Z,6.30
2018-01-20T07:06:53.565Z,6.20
2018-01-20T07:09:21.015Z,5.60
2018-01-20T07:11:48.480Z,6.70
2018-01-20T07:14:15.953Z,9.47
2018-01-20T07:16:43.429Z,9.30
2018-01-20T07:19:10.909Z,6.47
2018-01-20T07:21:39.129Z,6.93
2018-01-20T07:24:06.611Z,6.33
2018-01-20T07:26:34.089Z,5.40
2018-01-20T07:29:02.329Z,6.30
2018-01-20T07:31:29.922Z,5.97
2018-01-20T07:33:58.166Z,7.03
2018-01-20T07:36:26.446Z,5.67
2018-01-20T07:38:54.235Z,5.47
2018-01-20T07:41:21.706Z,5.47
2018-01-20T07:43:49.946Z,5.00
2018-01-20T07:46:17.433Z,5.83
2018-01-20T07:48:45.677Z,5.90
2018-01-20T07:51:13.220Z,5.03
2018-01-20T07:53:40.705Z,5.67
2018-01-20T07:56:08.162Z,5.30
2018-01-20T07:58:36.490Z,5.33
2018-01-20T08:01:03.949Z,5.40
2018-01-20T08:03:31.527Z,5.60
2018-01-20T08:05:59.984Z,4.23
2018-01-20T08:08:27.543Z,4.60
2018-01-20T08:10:55.068Z,4.57
2018-01-20T08:13:22.631Z,4.90
2018-01-20T08:15:51.068Z,4.13
2018-01-20T08:18:18.521Z,4.87
2018-01-20T08:20:45.999Z,4.30
2018-01-20T08:23:13.459Z,4.33
2018-01-20T08:25:40.918Z,3.90
2018-01-20T08:28:08.393Z,4.67
2018-01-20T08:30:36.630Z,4.30
2018-01-20T08:33:04.146Z,4.23
2018-01-20T08:35:31.715Z,5.17
2018-01-20T08:37:59.177Z,4.27
2018-01-20T08:40:26.637Z,5.73
2018-01-20T08:42:54.110Z,4.50
2018-01-20T08:45:21.585Z,4.27
2018-01-20T08:47:49.058Z,4.63
2018-01-20T08:50:17.285Z,4.00
2018-01-20T08:52:44.758Z,4.20
2018-01-20T08:55:12.213Z,3.80
2018-01-20T08:57:39.673Z,4.60
2018-01-20T09:00:07.195Z,5.23
2018-01-20T09:02:34.753Z,5.00
2018-01-20T09:05:02.313Z,4.20
2018-01-20T09:07:29.779Z,4.10
2018-01-20T09:09:57.234Z,4.07
2018-01-20T09:12:24.759Z,5.43
2018-01-20T09:14:52.974Z,4.60
2018-01-20T09:17:20.453Z,5.27
2018-01-20T09:19:47.910Z,5.30
2018-01-20T09:22:15.386Z,4.63
2018-01-20T09:24:42.858Z,4.47
2018-01-20T09:27:11.077Z,5.10
2018-01-20T09:29:38.558Z,4.23
2018-01-20T09:32:06.002Z,4.50
2018-01-20T09:34:33.462Z,4.03
2018-01-20T09:37:00.935Z,4.50
2018-01-20T09:39:28.422Z,4.70
2018-01-20T09:41:55.909Z,5.50
2018-01-20T09:44:23.365Z,4.63
2018-01-20T09:46:51.636Z,4.30
2018-01-20T09:49:19.110Z,4.47
2018-01-20T09:51:46.582Z,3.63
2018-01-20T09:54:14.059Z,4.10
2018-01-20T09:56:43.237Z,4.67
2018-01-20T09:59:10.715Z,5.10
2018-01-20T10:01:38.942Z,4.13
2018-01-20T10:04:06.424Z,3.77
2018-01-20T10:06:33.880Z,4.10
2018-01-20T10:09:01.755Z,4.10
2018-01-20T10:11:29.198Z,3.93
2018-01-20T10:13:56.685Z,4.33
2018-01-20T10:16:24.918Z,3.50
2018-01-20T10:18:52.419Z,3.70
2018-01-20T10:21:20.633Z,3.37
2018-01-20T10:23:48.141Z,3.93
2018-01-20T10:26:16.351Z,3.20
2018-01-20T10:28:43.834Z,3.67
2018-01-20T10:31:11.317Z,3.63
2018-01-20T10:33:38.781Z,4.10
2018-01-20T10:36:07.018Z,4.47
2018-01-20T10:38:34.482Z,4.00
2018-01-20T10:41:01.937Z,3.63
2018-01-20T10:43:29.529Z,3.90
2018-01-20T10:45:56.943Z,2.67
2018-01-20T10:48:24.406Z,4.00
2018-01-20T10:50:51.877Z,3.23
2018-01-20T10:53:19.342Z,3.40
2018-01-20T10:55:46.823Z,5.77
2018-01-20T10:58:15.058Z,2.40
2018-01-20T11:00:42.537Z,3.33
2018-01-20T11:03:10.042Z,3.20
2018-01-20T11:05:37.497Z,3.07
2018-01-20T11:08:04.957Z,3.23
2018-01-20T11:10:32.453Z,2.97
2018-01-20T11:12:59.897Z,3.10
2018-01-20T11:15:27.386Z,3.00
2018-01-20T11:17:55.602Z,2.90
2018-01-20T11:20:23.078Z,3.40
2018-01-20T11:22:50.550Z,3.90
2018-01-20T11:25:18.009Z,3.73
2018-01-20T11:27:45.485Z,3.37
2018-01-20T11:30:13.704Z,3.57
2018-01-20T11:32:41.188Z,3.80
2018-01-20T11:35:08.657Z,4.20
2018-01-20T11:37:36.137Z,3.70
2018-01-20T11:40:04.363Z,4.30
2018-01-20T11:42:31.830Z,3.80
2018-01-20T11:44:59.290Z,3.57
2018-01-20T11:47:26.766Z,4.00
2018-01-20T11:49:55.014Z,4.13
2018-01-20T11:52:22.469Z,3.57
2018-01-20T11:54:49.986Z,4.20
2018-01-20T11:57:18.481Z,4.80
2018-01-20T11:59:46.039Z,4.30
2018-01-20T12:02:13.501Z,4.30
2018-01-20T12:04:41.245Z,5.07
2018-01-20T12:07:09.506Z,4.37
2018-01-20T12:09:37.739Z,4.83
2018-01-20T12:12:05.583Z,4.60
2018-01-20T12:14:33.036Z,4.07
2018-01-20T12:17:00.526Z,4.50
2018-01-20T12:19:28.944Z,5.27
2018-01-20T12:21:57.374Z,4.70
2018-01-20T12:24:24.845Z,5.27
2018-01-20T12:26:52.326Z,5.67
2018-01-20T12:29:22.032Z,6.13
2018-01-20T12:31:51.188Z,5.10
2018-01-20T12:34:18.645Z,6.27
2018-01-20T12:36:46.100Z,4.73
2018-01-20T12:39:13.574Z,4.87
2018-01-20T12:41:41.055Z,5.80
2018-01-20T12:44:09.310Z,5.57
2018-01-20T12:46:39.197Z,5.97
2018-01-20T12:49:06.665Z,5.57
2018-01-20T12:51:34.129Z,5.63
2018-01-20T12:54:01.603Z,6.00
2018-01-20T12:56:29.825Z,6.60
2018-01-20T12:58:57.281Z,6.07
2018-01-20T13:01:25.232Z,6.17
2018-01-20T13:03:53.881Z,5.63
2018-01-20T13:06:21.386Z,6.27
2018-01-20T13:08:49.570Z,6.10
2018-01-20T13:11:17.041Z,5.93
2018-01-20T13:13:45.747Z,6.30
2018-01-20T13:16:13.225Z,7.40
2018-01-20T13:18:41.997Z,5.60
2018-01-20T13:21:09.455Z,7.13
2018-01-20T13:23:37.717Z,5.30
2018-01-20T13:26:05.172Z,3.87
2018-01-20T13:28:32.958Z,4.00
2018-01-20T13:31:00.417Z,4.33
2018-01-20T13:33:28.646Z,3.40
2018-01-20T13:35:56.120Z,3.73
2018-01-20T13:38:23.588Z,3.40
2018-01-20T13:40:51.049Z,3.13
2018-01-20T13:43:19.282Z,3.37
2018-01-20T13:45:46.766Z,2.53
2018-01-20T13:48:14.247Z,3.70
2018-01-20T13:50:41.739Z,4.37
2018-01-20T13:53:09.198Z,3.43
2018-01-20T13:55:36.682Z,4.17
2018-01-20T13:58:04.166Z,4.10
2018-01-20T14:00:31.614Z,3.93
2018-01-20T14:02:59.089Z,3.57
2018-01-20T14:05:27.398Z,4.20
2018-01-20T14:07:54.850Z,3.57
2018-01-20T14:10:22.326Z,3.77
2018-01-20T14:12:49.781Z,3.27
2018-01-20T14:15:17.250Z,3.80
2018-01-20T14:17:44.706Z,3.00
2018-01-20T14:20:12.189Z,3.40
2018-01-20T14:22:39.658Z,4.20
2018-01-20T14:25:07.897Z,3.50
2018-01-20T14:27:35.355Z,2.70
2018-01-20T14:30:02.859Z,3.10
2018-01-20T14:32:30.294Z,3.57
2018-01-20T14:34:57.763Z,3.87
2018-01-20T14:37:25.991Z,3.37
2018-01-20T14:39:53.441Z,3.70
2018-01-20T14:42:20.910Z,3.53
2018-01-20T14:44:48.362Z,4.20
2018-01-20T14:47:15.826Z,5.93
2018-01-20T14:49:43.306Z,5.60
2018-01-20T14:52:10.758Z,5.33
2018-01-20T14:54:38.997Z,4.37
2018-01-20T14:57:06.470Z,4.27
2018-01-20T14:59:33.949Z,4.13
2018-01-20T15:02:01.425Z,4.30
2018-01-20T15:04:29.713Z,4.30
2018-01-20T15:06:57.190Z,4.30
2018-01-20T15:09:24.673Z,5.20
2018-01-20T15:11:52.149Z,5.10
2018-01-20T15:14:20.397Z,5.20
2018-01-20T15:16:47.878Z,4.97
2018-01-20T15:19:15.385Z,5.43
2018-01-20T15:21:42.833Z,5.97
2018-01-20T15:24:10.302Z,5.17
2018-01-20T15:26:37.761Z,5.23
2018-01-20T15:29:05.249Z,4.80
2018-01-20T15:31:32.722Z,5.10
2018-01-20T15:34:00.175Z,4.87
2018-01-20T15:36:27.725Z,4.60
2018-01-20T15:38:55.388Z,4.77
2018-01-20T15:41:22.901Z,5.53
2018-01-20T15:43:50.370Z,4.67
2018-01-20T15:46:17.826Z,5.43
2018-01-20T15:48:45.306Z,4.60
2018-01-20T15:51:12.758Z,5.13
2018-01-20T15:53:40.261Z,4.80
2018-01-20T15:56:07.753Z,5.80
2018-01-20T15:58:35.243Z,6.20
2018-01-20T16:01:03.466Z,6.20
2018-01-20T16:03:30.946Z,6.33
2018-01-20T16:05:58.423Z,7.30
2018-01-20T16:08:25.899Z,7.27
2018-01-20T16:10:54.141Z,6.70
2018-01-20T16:13:21.616Z,6.80
2018-01-20T16:15:49.094Z,7.50
2018-01-20T16:18:17.318Z,7.20
2018-01-20T16:20:46.690Z,6.83
2018-01-20T16:23:14.137Z,6.67
2018-01-20T16:25:42.358Z,5.57
2018-01-20T16:28:09.857Z,5.70
2018-01-20T16:30:38.095Z,6.43
2018-01-20T16:33:05.628Z,6.23
2018-01-20T16:35:33.079Z,6.47
2018-01-20T16:38:00.557Z,6.70
2018-01-20T16:40:28.021Z,7.10
2018-01-20T16:42:55.498Z,8.13
2018-01-20T16:45:22.976Z,8.10
2018-01-20T16:47:51.206Z,7.03
2018-01-20T16:50:18.744Z,8.00
2018-01-20T16:52:46.221Z,8.50
2018-01-20T16:55:13.695Z,8.00
2018-01-20T16:57:42.083Z,7.77
2018-01-20T17:00:09.553Z,7.90
2018-01-20T17:02:37.809Z,8.83
2018-01-20T17:05:05.277Z,8.50
2018-01-20T17:07:33.553Z,10.03
2018-01-20T17:10:01.036Z,11.27
2018-01-20T17:12:32.205Z,11.20
2018-01-20T17:14:59.692Z,10.27
2018-01-20T17:17:27.153Z,10.47
2018-01-20T17:19:57.269Z,9.53
2018-01-20T17:22:24.730Z,10.33
2018-01-20T17:24:52.191Z,10.13
2018-01-20T17:27:19.669Z,10.73
2018-01-20T17:29:47.134Z,10.67
2018-01-20T17:32:14.626Z,10.97
2018-01-20T17:34:42.083Z,10.20
2018-01-20T17:37:09.586Z,10.63
2018-01-20T17:39:37.833Z,10.50
2018-01-20T17:42:05.325Z,10.63
2018-01-20T17:44:33.562Z,9.77
2018-01-20T17:47:01.012Z,9.70
2018-01-20T17:49:28.502Z,10.63
2018-01-20T17:51:56.754Z,10.20
2018-01-20T17:54:24.245Z,10.43
2018-01-20T17:56:52.502Z,11.10
2018-01-20T17:59:19.988Z,10.60
2018-01-20T18:01:47.466Z,10.87
2018-01-20T18:04:15.947Z,12.10
2018-01-20T18:06:43.503Z,12.70
2018-01-20T18:09:10.974Z,13.63
2018-01-20T18:11:38.465Z,10.70
2018-01-20T18:14:05.947Z,11.60
2018-01-20T18:16:33.431Z,12.97
2018-01-20T18:19:00.955Z,12.97
2018-01-20T18:21:28.385Z,13.57
2018-01-20T18:23:55.829Z,13.97
2018-01-20T18:26:23.301Z,15.30
2018-01-20T18:28:50.779Z,15.40
2018-01-20T18:31:19.004Z,16.00
2018-01-20T18:33:46.476Z,16.70
2018-01-20T18:36:13.959Z,18.30
2018-01-20T18:38:41.425Z,19.10
2018-01-20T18:41:09.675Z,18.47
2018-01-20T18:43:37.186Z,19.00
2018-01-20T18:46:04.749Z,20.13
2018-01-20T18:48:32.349Z,19.13
2018-01-20T18:50:59.803Z,21.10
2018-01-20T18:53:27.277Z,23.47
2018-01-20T18:55:55.548Z,24.00
2018-01-20T18:58:23.074Z,26.03
2018-01-20T19:00:50.565Z,25.43
2018-01-20T19:03:18.838Z,26.23
2018-01-20T19:05:46.313Z,23.53
2018-01-20T19:08:14.562Z,23.87
2018-01-20T19:10:42.028Z,25.00
2018-01-20T19:13:09.495Z,23.67
2018-01-20T19:15:37.759Z,25.20
2018-01-20T19:18:05.238Z,25.30
2018-01-20T19:20:32.707Z,25.00
2018-01-20T19:23:00.206Z,26.27
2018-01-20T19:25:27.698Z,26.03
2018-01-20T19:27:55.930Z,30.53
2018-01-20T19:30:23.399Z,32.37
2018-01-20T19:32:50.913Z,30.47
2018-01-20T19:35:18.407Z,30.00
2018-01-20T19:37:45.898Z,28.83
2018-01-20T19:40:14.143Z,25.67
2018-01-20T19:42:41.598Z,26.27
2018-01-20T19:45:10.034Z,27.10
2018-01-20T19:47:37.501Z,28.47
2018-01-20T19:50:04.961Z,26.43
2018-01-20T19:52:32.434Z,26.50
2018-01-20T19:54:59.897Z,27.70
2018-01-20T19:57:27.390Z,28.03
2018-01-20T19:59:55.626Z,27.60
2018-01-20T20:02:23.859Z,28.70
2018-01-20T20:04:52.098Z,26.90
2018-01-20T20:07:19.565Z,27.30
2018-01-20T20:09:47.831Z,29.70
2018-01-20T20:12:15.290Z,29.90
2018-01-20T20:14:42.806Z,31.80
2018-01-20T20:17:10.273Z,34.13
2018-01-20T20:19:37.753Z,44.37
2018-01-20T20:22:05.225Z,41.03
2018-01-20T20:24:32.687Z,33.70
2018-01-20T20:27:00.940Z,32.40
2018-01-20T20:29:28.401Z,32.23
2018-01-20T20:31:56.653Z,33.67
2018-01-20T20:34:24.125Z,30.70
2018-01-20T20:36:51.597Z,32.87
2018-01-20T20:39:19.853Z,32.27
2018-01-20T20:41:47.330Z,34.53
2018-01-20T20:44:15.585Z,30.30
2018-01-20T20:46:43.063Z,32.50
2018-01-20T20:49:10.552Z,30.33
2018-01-20T20:51:38.018Z,30.10
2018-01-20T20:54:05.521Z,32.90
2018-01-20T20:56:33.010Z,28.73
2018-01-20T20:59:00.469Z,30.27
2018-01-20T21:01:27.946Z,27.87
2018-01-20T21:03:55.417Z,29.47
2018-01-20T21:06:22.889Z,30.30
2018-01-20T21:08:51.881Z,33.40
2018-01-20T21:11:19.414Z,30.70
2018-01-20T21:13:46.918Z,30.13
2018-01-20T21:16:14.410Z,31.30
2018-01-20T21:18:41.907Z,32.00
2018-01-20T21:21:09.387Z,31.17
2018-01-20T21:23:36.861Z,28.90
2018-01-20T21:26:05.103Z,27.80
2018-01-20T21:28:32.579Z,29.37
2018-01-20T21:33:34.881Z,31.77
2018-01-20T21:36:03.127Z,30.57
2018-01-20T21:38:30.595Z,29.60
2018-01-20T21:40:58.823Z,28.83
2018-01-20T21:43:26.314Z,29.00
2018-01-20T21:45:53.789Z,29.67
2018-01-20T21:48:21.371Z,28.23
2018-01-20T21:50:49.592Z,29.13
2018-01-20T21:53:17.054Z,31.67
2018-01-20T21:55:44.544Z,28.37
2018-01-20T21:58:12.789Z,29.07
2018-01-20T22:00:40.274Z,30.07
2018-01-20T22:03:08.508Z,30.10
2018-01-20T22:05:35.981Z,29.80
2018-01-20T22:08:04.962Z,31.47
2018-01-20T22:10:32.488Z,33.50
2018-01-20T22:12:59.963Z,35.37
2018-01-20T22:15:27.465Z,31.47
2018-01-20T22:17:54.919Z,32.00
2018-01-20T22:20:23.163Z,30.53
2018-01-20T22:22:50.666Z,33.50
2018-01-20T22:25:18.151Z,34.40
2018-01-20T22:27:46.854Z,33.87
2018-01-20T22:30:14.332Z,33.90
2018-01-20T22:32:43.896Z,33.10
2018-01-20T22:35:11.361Z,33.70
2018-01-20T22:37:38.830Z,32.70
2018-01-20T22:40:06.306Z,37.10
2018-01-20T22:42:33.782Z,33.10
2018-01-20T22:45:02.030Z,32.87
2018-01-20T22:47:29.506Z,34.10
2018-01-20T22:49:56.987Z,33.43
2018-01-20T22:52:26.206Z,31.53
2018-01-20T22:54:53.681Z,35.13
2018-01-20T22:57:21.158Z,32.90
2018-01-20T22:59:48.629Z,32.70
2018-01-20T23:02:16.110Z,36.63
2018-01-20T23:04:44.345Z,34.27
2018-01-20T23:07:11.814Z,36.43
2018-01-20T23:09:39.270Z,35.00
2018-01-20T23:12:06.810Z,35.40
2018-01-20T23:14:34.229Z,38.27
2018-01-20T23:17:01.722Z,36.63
2018-01-20T23:19:29.205Z,36.47
2018-01-20T23:21:56.673Z,36.07
2018-01-20T23:24:24.905Z,36.77
2018-01-20T23:26:52.386Z,36.67
2018-01-20T23:29:19.849Z,37.00
2018-01-20T23:31:48.081Z,35.90
2018-01-20T23:34:15.561Z,35.73
2018-01-20T23:36:43.022Z,34.40
2018-01-20T23:39:10.497Z,34.87
2018-01-20T23:41:38.728Z,32.80
2018-01-20T23:44:06.221Z,34.63
2018-01-20T23:46:34.453Z,33.03
2018-01-20T23:49:02.005Z,34.50
2018-01-20T23:51:29.473Z,32.23
2018-01-20T23:53:56.941Z,32.67
2018-01-20T23:56:24.417Z,34.20
2018-01-20T23:58:51.928Z,33.20
